sensor_id;sensor_type;location;lat;lon;timestamp;pressure;altitude;pressure_sealevel;temperature;humidity
59329;BME280;45100;46.926;7.452;2024-02-21T07:23:33;96015.39;;;2.10;100.00
59329;BME280;45100;46.926;7.452;2024-02-21T07:26:06;96015.16;;;2.14;100.00
59329;BME280;45100;46.926;7.452;2024-02-21T07:31:07;96008.12;;;2.16;100.00
59329;BME280;45100;46.926;7.452;2024-02-21T07:33:37;96009.47;;;2.17;100.00
59329;BME280;45100;46.926;7.452;2024-02-21T07:36:10;96010.22;;;2.19;100.00
59329;BME280;45100;46.926;7.452;2024-02-21T07:38:38;96003.19;;;2.21;100.00
59329;BME280;45100;46.926;7.452;2024-02-21T07:41:09;96004.33;;;2.25;100.00
59329;BME280;45100;46.926;7.452;2024-02-21T07:43:40;95999.41;;;2.28;100.00
59329;BME280;45100;46.926;7.452;2024-02-21T07:46:10;96000.92;;;2.33;100.00
59329;BME280;45100;46.926;7.452;2024-02-21T07:48:41;95996.48;;;2.40;100.00
59329;BME280;45100;46.926;7.452;2024-02-21T07:51:12;96001.02;;;2.46;100.00
59329;BME280;45100;46.926;7.452;2024-02-21T07:53:48;96003.19;;;2.53;100.00
59329;BME280;45100;46.926;7.452;2024-02-21T07:59:44;96003.12;;;2.69;100.00
59329;BME280;45100;46.926;7.452;2024-02-21T08:02:07;95994.55;;;2.77;100.00
59329;BME280;45100;46.926;7.452;2024-02-21T08:04:37;95984.59;;;2.84;100.00
59329;BME280;45100;46.926;7.452;2024-02-21T08:08:04;95982.73;;;2.93;100.00
59329;BME280;45100;46.926;7.452;2024-02-21T08:10:31;95981.33;;;3.00;100.00
59329;BME280;45100;46.926;7.452;2024-02-21T08:12:33;95977.03;;;3.03;100.00
59329;BME280;45100;46.926;7.452;2024-02-21T08:15:34;95970.16;;;3.02;100.00
59329;BME280;45100;46.926;7.452;2024-02-21T08:17:53;95968.50;;;3.03;100.00
59329;BME280;45100;46.926;7.452;2024-02-21T08:19:41;95965.12;;;3.04;100.00
59329;BME280;45100;46.926;7.452;2024-02-21T08:22:12;95963.00;;;3.06;100.00
59329;BME280;45100;46.926;7.452;2024-02-21T08:24:42;95971.33;;;3.13;100.00
59329;BME280;45100;46.926;7.452;2024-02-21T08:27:59;95966.12;;;3.20;100.00
59329;BME280;45100;46.926;7.452;2024-02-21T08:30:29;95974.44;;;3.32;100.00
59329;BME280;45100;46.926;7.452;2024-02-21T08:45:56;95974.47;;;3.88;100.00
59329;BME280;45100;46.926;7.452;2024-02-21T08:48:26;95972.58;;;3.96;100.00
59329;BME280;45100;46.926;7.452;2024-02-21T08:50:57;95974.53;;;4.06;100.00
59329;BME280;45100;46.926;7.452;2024-02-21T08:53:28;95976.97;;;4.13;100.00
59329;BME280;45100;46.926;7.452;2024-02-21T08:56:47;95978.29;;;4.22;100.00
59329;BME280;45100;46.926;7.452;2024-02-21T08:59:30;95976.98;;;4.30;99.98
59329;BME280;45100;46.926;7.452;2024-02-21T09:01:54;95977.53;;;4.36;99.10
59329;BME280;45100;46.926;7.452;2024-02-21T09:04:36;95971.27;;;4.40;98.51
59329;BME280;45100;46.926;7.452;2024-02-21T09:06:43;95973.55;;;4.45;98.98
59329;BME280;45100;46.926;7.452;2024-02-21T09:22:59;95951.80;;;5.18;96.44
59329;BME280;45100;46.926;7.452;2024-02-21T09:25:29;95949.73;;;5.28;96.45
59329;BME280;45100;46.926;7.452;2024-02-21T09:28:03;95949.32;;;5.39;95.77
59329;BME280;45100;46.926;7.452;2024-02-21T09:30:29;95949.53;;;5.47;93.65
59329;BME280;45100;46.926;7.452;2024-02-21T09:32:59;95950.63;;;5.54;93.08
59329;BME280;45100;46.926;7.452;2024-02-21T09:38:56;95946.61;;;5.60;91.77
59329;BME280;45100;46.926;7.452;2024-02-21T09:43:04;95936.87;;;5.74;93.17
59329;BME280;45100;46.926;7.452;2024-02-21T09:46:25;95932.91;;;5.88;93.53
59329;BME280;45100;46.926;7.452;2024-02-21T09:51:02;95936.12;;;6.13;90.31
59329;BME280;45100;46.926;7.452;2024-02-21T09:53:56;95940.16;;;6.20;88.57
59329;BME280;45100;46.926;7.452;2024-02-21T09:56:27;95929.86;;;6.24;88.96
59329;BME280;45100;46.926;7.452;2024-02-21T09:59:05;95922.72;;;6.28;87.90
59329;BME280;45100;46.926;7.452;2024-02-21T10:00:52;95925.70;;;6.33;87.47
59329;BME280;45100;46.926;7.452;2024-02-21T10:04:05;95921.03;;;6.36;87.12
59329;BME280;45100;46.926;7.452;2024-02-21T10:06:31;95915.10;;;6.40;86.88
59329;BME280;45100;46.926;7.452;2024-02-21T10:08:37;95910.53;;;6.44;86.44
59329;BME280;45100;46.926;7.452;2024-02-21T10:10:41;95906.92;;;6.51;86.26
59329;BME280;45100;46.926;7.452;2024-02-21T10:13:35;95900.88;;;6.61;86.56
59329;BME280;45100;46.926;7.452;2024-02-21T10:21:02;95893.14;;;6.73;83.68
59329;BME280;45100;46.926;7.452;2024-02-21T10:24:37;95890.42;;;6.70;83.60
59329;BME280;45100;46.926;7.452;2024-02-21T10:26:05;95890.36;;;6.70;83.81
59329;BME280;45100;46.926;7.452;2024-02-21T10:28:28;95887.70;;;6.73;84.76
59329;BME280;45100;46.926;7.452;2024-02-21T10:31:55;95882.94;;;6.82;84.23
59329;BME280;45100;46.926;7.452;2024-02-21T10:33:59;95877.07;;;6.91;84.34
59329;BME280;45100;46.926;7.452;2024-02-21T10:36:06;95874.27;;;6.99;83.62
59329;BME280;45100;46.926;7.452;2024-02-21T10:38:29;95871.08;;;7.07;82.99
59329;BME280;45100;46.926;7.452;2024-02-21T10:41:00;95862.95;;;7.14;82.43
59329;BME280;45100;46.926;7.452;2024-02-21T10:43:37;95858.74;;;7.23;82.88
59329;BME280;45100;46.926;7.452;2024-02-21T10:46:02;95858.30;;;7.33;81.97
59329;BME280;45100;46.926;7.452;2024-02-21T10:48:42;95854.42;;;7.41;81.19
59329;BME280;45100;46.926;7.452;2024-02-21T10:51:18;95850.09;;;7.49;80.91
59329;BME280;45100;46.926;7.452;2024-02-21T10:56:16;95841.97;;;7.58;76.76
59329;BME280;45100;46.926;7.452;2024-02-21T10:58:35;95836.32;;;7.62;77.31
59329;BME280;45100;46.926;7.452;2024-02-21T11:01:05;95830.69;;;7.66;76.28
59329;BME280;45100;46.926;7.452;2024-02-21T11:03:37;95831.02;;;7.70;75.44
59329;BME280;45100;46.926;7.452;2024-02-21T11:06:07;95823.97;;;7.73;74.79
59329;BME280;45100;46.926;7.452;2024-02-21T11:08:36;95820.69;;;7.79;76.08
59329;BME280;45100;46.926;7.452;2024-02-21T11:11:07;95813.81;;;7.85;74.65
59329;BME280;45100;46.926;7.452;2024-02-21T11:13:43;95812.58;;;7.90;74.00
59329;BME280;45100;46.926;7.452;2024-02-21T12:01:39;95700.27;;;8.34;72.72
59329;BME280;45100;46.926;7.452;2024-02-21T12:04:27;95695.95;;;8.39;71.67
59329;BME280;45100;46.926;7.452;2024-02-21T12:06:31;95690.02;;;8.42;71.27
59329;BME280;45100;46.926;7.452;2024-02-21T12:14:03;95682.86;;;8.45;72.60
59329;BME280;45100;46.926;7.452;2024-02-21T12:21:48;95668.23;;;8.48;71.08
59329;BME280;45100;46.926;7.452;2024-02-21T12:24:33;95666.18;;;8.46;70.90
59329;BME280;45100;46.926;7.452;2024-02-21T12:26:45;95661.77;;;8.45;71.92
59329;BME280;45100;46.926;7.452;2024-02-21T12:29:46;95662.52;;;8.48;71.50
59329;BME280;45100;46.926;7.452;2024-02-21T12:34:18;95647.86;;;8.57;71.94
59329;BME280;45100;46.926;7.452;2024-02-21T12:37:16;95641.07;;;8.66;71.87
59329;BME280;45100;46.926;7.452;2024-02-21T12:39:35;95634.88;;;8.78;73.15
59329;BME280;45100;46.926;7.452;2024-02-21T12:41:57;95624.81;;;8.91;72.79
59329;BME280;45100;46.926;7.452;2024-02-21T12:44:33;95617.95;;;9.01;72.20
59329;BME280;45100;46.926;7.452;2024-02-21T12:52:19;95603.28;;;9.25;72.03
59329;BME280;45100;46.926;7.452;2024-02-21T12:55:43;95600.38;;;9.24;72.77
59329;BME280;45100;46.926;7.452;2024-02-21T13:05:16;95576.73;;;9.26;70.15
59329;BME280;45100;46.926;7.452;2024-02-21T13:08:05;95572.58;;;9.27;72.57
59329;BME280;45100;46.926;7.452;2024-02-21T13:09:53;95573.91;;;9.29;71.83
59329;BME280;45100;46.926;7.452;2024-02-21T13:13:00;95566.30;;;9.30;71.81
59329;BME280;45100;46.926;7.452;2024-02-21T13:15:48;95562.30;;;9.29;71.77
59329;BME280;45100;46.926;7.452;2024-02-21T13:17:30;95550.05;;;9.31;72.31
59329;BME280;45100;46.926;7.452;2024-02-21T13:20:39;95548.56;;;9.33;71.55
59329;BME280;45100;46.926;7.452;2024-02-21T13:23:36;95542.56;;;9.32;72.12
59329;BME280;45100;46.926;7.452;2024-02-21T13:28:17;95530.92;;;9.29;72.92
59329;BME280;45100;46.926;7.452;2024-02-21T13:36:57;95511.16;;;9.28;74.02
59329;BME280;45100;46.926;7.452;2024-02-21T13:39:50;95501.16;;;9.30;74.16
59329;BME280;45100;46.926;7.452;2024-02-21T14:00:28;95448.08;;;9.59;72.78
59329;BME280;45100;46.926;7.452;2024-02-21T14:03:32;95446.11;;;9.57;71.90
59329;BME280;45100;46.926;7.452;2024-02-21T14:06:19;95438.38;;;9.50;72.48
59329;BME280;45100;46.926;7.452;2024-02-21T14:21:46;95409.30;;;9.44;73.73
59329;BME280;45100;46.926;7.452;2024-02-21T14:24:18;95405.71;;;9.46;73.88
59329;BME280;45100;46.926;7.452;2024-02-21T14:27:11;95404.06;;;9.48;73.71
